气象报文与情报通波
气象报文机场: RJBB
ADDS - METARS form results

(1115 UTC 18 November 2019)
数据来源 http://aviationweather.gov/metar/data/
 
METAR text: RJBB 181100Z 30019KT 9999 -SHRA FEW005 SCT025 BKN040 19/17 Q1012 NOSIG
Conditions at: RJBB (KANSAI INTL , JP) observed 1100 UTC 18 November 2019
Temperature: 19.0°C (66°F)
Dewpoint: 17.0°C (63°F) [RH = 88%]
Pressure (altimeter): 29.88 inches Hg (1012.0 mb)
Winds: from the WNW (300 degrees) at 22 MPH (19 knots; 9.8 m/s)
Visibility: 6 or more miles (10+ km)
Ceiling: 4000 feet AGL
Clouds: few clouds at 500 feet AGL
scattered clouds at 2500 feet AGL
broken clouds at 4000 feet AGL
Weather: -SHRA  (light rain showers)

METAR text: RJBB 181030Z 30016KT 9999 -SHRA FEW005 SCT015 BKN035 19/17 Q1012 NOSIG
Conditions at: RJBB (KANSAI INTL , JP) observed 1030 UTC 18 November 2019
Temperature: 19.0°C (66°F)
Dewpoint: 17.0°C (63°F) [RH = 88%]
Pressure (altimeter): 29.88 inches Hg (1012.0 mb)
Winds: from the WNW (300 degrees) at 18 MPH (16 knots; 8.2 m/s)
Visibility: 6 or more miles (10+ km)
Ceiling: 3500 feet AGL
Clouds: few clouds at 500 feet AGL
scattered clouds at 1500 feet AGL
broken clouds at 3500 feet AGL
Weather: -SHRA  (light rain showers)

METAR text: RJBB 181019Z 29015KT 9999 -SHRA FEW005 SCT015 BKN040 20/20 Q1012 RMK 1ST005 3CU015 6CU040 A2989
Conditions at: RJBB (KANSAI INTL , JP) observed 1019 UTC 18 November 2019
Temperature: 20.0°C (68°F)
Dewpoint: 20.0°C (68°F) [RH = 100%]
Pressure (altimeter): 29.88 inches Hg (1012.0 mb)
Winds: from the WNW (290 degrees) at 17 MPH (15 knots; 7.7 m/s)
Visibility: 6 or more miles (10+ km)
Ceiling: 4000 feet AGL
Clouds: few clouds at 500 feet AGL
scattered clouds at 1500 feet AGL
broken clouds at 4000 feet AGL
Weather: -SHRA  (light rain showers)

Forecast for: RJBB (KANSAI INTL , JP)
Text: TAF RJBB 181109Z 1812/1918 31020KT 9999 FEW015 SCT045
Forecast period: 1200 UTC 18 November 2019 to 1800 UTC 19 November 2019
Forecast type: FROM: standard forecast or significant change
Winds: from the NW (310 degrees) at 23 MPH (20 knots; 10.3 m/s)
Visibility: 6 or more miles 10+ km)
Ceiling: at least 12,000 feet AGL
Clouds: few clouds at 1500 feet AGL
scattered clouds at 4500 feet AGL
Weather: no significant weather forecast for this period

 机场地图

 跑道信息
跑道 06L 跑道长度 13123 ft 跑道宽度 196 ft
跑道标高 24 ft 跑道內移距离 0 ft 跑道磁航向 51
跑道 24R 跑道长度 13123 ft 跑道宽度 196 ft
跑道标高 32 ft 跑道內移距离 0 ft 跑道磁航向 231
跑道 06R 跑道长度 11483 ft 跑道宽度 196 ft
跑道标高 6 ft 跑道內移距离 0 ft 跑道磁航向 51
跑道 24L 跑道长度 11483 ft 跑道宽度 196 ft
跑道标高 15 ft 跑道內移距离 0 ft 跑道磁航向 231

 机场频率
类型 APP 名称 APP 频率 120.25 MHZ
类型 ATIS 名称 ATIS 频率 127.85 MHZ
类型 CLD 名称 CLNC DEL 频率 121.9 MHZ
类型 DEP 名称 DEP 频率 119.2 MHZ
类型 GND 名称 GND 频率 121.6 MHZ
类型 TCA 名称 TCA 频率 121.1 MHZ
类型 TWR 名称 TWR 频率 118.2 MHZ

 机场附近导航设备
类型 NDB 名称 Kansai 频率 346 KHZ
类型 VOR-DME 名称 Kansai 频率 111800 KHZ
类型 VOR-DME 名称 Shigi 频率 111600 KHZ
类型 VOR-DME 名称 Shinoda 频率 112300 KHZ
类型 VOR-DME 名称 Tomo 频率 116400 KHZ



© FlySim.cn中国最大航空飞行视频网版权所有